createdAt,value
2022-09-23T00:01:14.735Z,30.72
2022-09-23T00:03:43.100Z,30.49
2022-09-23T00:06:15.098Z,30.34
2022-09-23T00:08:42.341Z,30.75
2022-09-23T00:11:11.109Z,30.71
2022-09-23T00:13:39.358Z,30.68
2022-09-23T00:16:07.430Z,30.90
2022-09-23T00:18:34.848Z,30.55
2022-09-23T00:21:06.351Z,31.05
2022-09-23T00:23:33.788Z,30.55
2022-09-23T00:26:01.660Z,30.76
2022-09-23T00:28:29.325Z,30.52
2022-09-23T00:30:56.554Z,30.33
2022-09-23T00:33:23.976Z,30.26
2022-09-23T00:35:51.350Z,30.72
2022-09-23T00:38:18.770Z,30.80
2022-09-23T00:40:46.376Z,30.22
2022-09-23T00:43:15.006Z,30.33
2022-09-23T00:45:46.813Z,30.14
2022-09-23T00:48:20.089Z,30.53
2022-09-23T00:50:53.557Z,30.58
2022-09-23T00:53:22.868Z,30.45
2022-09-23T00:55:56.579Z,30.73
2022-09-23T00:58:26.893Z,30.15
2022-09-23T01:00:54.913Z,30.53
2022-09-23T01:03:23.023Z,30.14
2022-09-23T01:05:50.466Z,29.94
2022-09-23T01:08:18.291Z,30.17
2022-09-23T01:10:52.540Z,30.10
2022-09-23T01:13:32.457Z,29.77
2022-09-23T01:16:13.914Z,30.47
2022-09-23T01:18:57.280Z,30.09
2022-09-23T01:21:24.721Z,29.95
2022-09-23T01:23:52.917Z,30.21
2022-09-23T01:26:38.623Z,29.93
2022-09-23T01:29:17.899Z,29.68
2022-09-23T01:31:57.146Z,29.84
2022-09-23T01:34:44.467Z,29.94
2022-09-23T01:37:21.190Z,30.26
2022-09-23T01:39:55.899Z,29.87
2022-09-23T01:42:30.621Z,29.78
2022-09-23T01:45:14.108Z,30.17
2022-09-23T01:47:56.105Z,30.03
2022-09-23T01:50:47.464Z,29.62
2022-09-23T01:53:28.412Z,29.70
2022-09-23T01:55:57.906Z,29.75
2022-09-23T01:58:37.325Z,29.54
2022-09-23T02:01:07.276Z,29.86
2022-09-23T02:03:42.179Z,29.79
2022-09-23T02:06:15.534Z,29.95
2022-09-23T02:09:01.418Z,29.97
2022-09-23T02:11:29.240Z,29.64
2022-09-23T02:13:59.030Z,29.74
2022-09-23T02:16:52.839Z,29.87
2022-09-23T02:19:32.037Z,30.21
2022-09-23T02:22:12.939Z,30.14
2022-09-23T02:24:40.345Z,30.10
2022-09-23T02:27:14.601Z,29.53
2022-09-23T02:29:45.040Z,29.65
2022-09-23T02:32:19.854Z,29.84
2022-09-23T02:34:53.558Z,29.92
2022-09-23T02:37:26.753Z,29.64
2022-09-23T02:39:56.892Z,29.89
2022-09-23T02:42:29.084Z,30.02
2022-09-23T02:44:56.510Z,29.54
2022-09-23T02:47:27.573Z,29.92
2022-09-23T02:49:56.435Z,29.69
2022-09-23T02:52:25.056Z,30.05
2022-09-23T02:54:52.707Z,29.95
2022-09-23T02:57:19.981Z,30.06
2022-09-23T02:59:47.256Z,29.62
2022-09-23T03:02:21.825Z,29.94
2022-09-23T03:04:58.652Z,29.99
2022-09-23T03:07:36.052Z,29.51
2022-09-23T03:10:17.788Z,29.63
2022-09-23T03:12:54.241Z,29.45
2022-09-23T03:15:25.241Z,29.62
2022-09-23T03:18:11.829Z,29.35
2022-09-23T03:20:49.574Z,29.72
2022-09-23T03:23:19.404Z,30.03
2022-09-23T03:25:49.001Z,30.03
2022-09-23T03:28:17.649Z,29.67
2022-09-23T03:30:45.359Z,29.64
2022-09-23T03:33:16.802Z,29.79
2022-09-23T03:36:10.993Z,29.59
2022-09-23T03:38:41.883Z,29.64
2022-09-23T03:41:12.082Z,29.38
2022-09-23T03:43:39.372Z,29.83
2022-09-23T03:46:08.300Z,29.83
2022-09-23T03:48:35.678Z,29.11
2022-09-23T03:51:13.804Z,29.06
2022-09-23T03:53:41.343Z,29.29
2022-09-23T03:56:08.476Z,27.85
2022-09-23T03:58:35.637Z,27.38
2022-09-23T04:01:02.919Z,28.63
2022-09-23T04:03:30.351Z,27.19
2022-09-23T04:05:57.515Z,27.04
2022-09-23T04:08:24.818Z,27.63
2022-09-23T04:10:54.839Z,28.17
2022-09-23T04:13:22.216Z,28.04
2022-09-23T04:15:50.130Z,27.68
2022-09-23T04:18:17.373Z,28.35
2022-09-23T04:20:44.620Z,28.11
2022-09-23T04:23:11.861Z,27.68
2022-09-23T04:25:48.864Z,27.94
2022-09-23T04:28:16.419Z,27.98
2022-09-23T04:30:44.357Z,28.28
2022-09-23T04:33:12.318Z,28.16
2022-09-23T04:35:40.561Z,27.67
2022-09-23T04:38:08.273Z,27.75
2022-09-23T04:40:36.001Z,27.54
2022-09-23T04:43:03.348Z,27.74
2022-09-23T04:45:30.597Z,27.80
2022-09-23T04:47:58.515Z,27.76
2022-09-23T04:50:26.456Z,27.74
2022-09-23T04:52:54.217Z,28.18
2022-09-23T04:55:22.200Z,28.13
2022-09-23T04:57:49.533Z,28.04
2022-09-23T05:00:16.810Z,28.16
2022-09-23T05:02:48.218Z,28.09
2022-09-23T05:05:21.311Z,28.03
2022-09-23T05:07:48.715Z,27.79
2022-09-23T05:10:15.981Z,27.80
2022-09-23T05:12:43.334Z,28.02
2022-09-23T05:15:10.532Z,27.94
2022-09-23T05:17:37.787Z,28.02
2022-09-23T05:20:05.211Z,28.06
2022-09-23T05:22:32.503Z,28.53
2022-09-23T05:25:01.641Z,27.94
2022-09-23T05:27:29.195Z,28.05
2022-09-23T05:29:56.351Z,27.23
2022-09-23T05:32:23.660Z,27.67
2022-09-23T05:34:51.062Z,27.73
2022-09-23T05:37:18.256Z,28.33
2022-09-23T05:39:45.430Z,29.03
2022-09-23T05:42:12.749Z,28.32
2022-09-23T05:44:40.049Z,28.47
2022-09-23T05:47:07.580Z,28.26
2022-09-23T05:49:55.623Z,28.37
2022-09-23T05:52:24.140Z,28.20
2022-09-23T05:54:51.400Z,28.20
2022-09-23T05:57:19.080Z,27.94
2022-09-23T05:59:47.794Z,28.06
2022-09-23T06:02:15.458Z,28.32
2022-09-23T06:04:43.159Z,28.77
2022-09-23T06:07:10.500Z,28.64
2022-09-23T06:09:37.821Z,28.66
2022-09-23T06:12:05.233Z,28.37
2022-09-23T06:14:32.388Z,28.72
2022-09-23T06:16:59.648Z,28.47
2022-09-23T06:19:26.896Z,28.51
2022-09-23T06:21:54.573Z,28.42
2022-09-23T06:24:25.993Z,28.28
2022-09-23T06:26:56.040Z,28.30
2022-09-23T06:29:23.565Z,28.09
2022-09-23T06:31:50.808Z,28.20
2022-09-23T06:34:19.380Z,27.92
2022-09-23T06:36:47.171Z,28.40
2022-09-23T06:39:15.046Z,28.01
2022-09-23T06:41:42.312Z,27.83
2022-09-23T06:44:13.343Z,27.98
2022-09-23T06:46:40.874Z,27.97
2022-09-23T06:49:08.127Z,28.43
2022-09-23T06:51:35.436Z,28.34
2022-09-23T06:54:02.768Z,28.56
2022-09-23T06:56:32.547Z,28.63
2022-09-23T06:59:03.488Z,28.37
2022-09-23T07:01:30.745Z,28.30
2022-09-23T07:03:58.062Z,28.74
2022-09-23T07:06:25.300Z,28.55
2022-09-23T07:08:53.253Z,28.74
2022-09-23T07:11:22.693Z,28.49
2022-09-23T07:13:50.085Z,28.85
2022-09-23T07:16:17.432Z,29.02
2022-09-23T07:18:45.136Z,28.74
2022-09-23T07:21:17.191Z,28.15
2022-09-23T07:23:46.073Z,28.27
2022-09-23T07:26:13.984Z,28.83
2022-09-23T07:28:41.448Z,28.43
2022-09-23T07:31:12.979Z,28.42
2022-09-23T07:33:44.611Z,28.79
2022-09-23T07:36:17.359Z,28.77
2022-09-23T07:38:45.903Z,28.83
2022-09-23T07:41:14.786Z,29.04
2022-09-23T07:43:42.042Z,28.37
2022-09-23T07:46:11.170Z,28.42
2022-09-23T07:48:38.839Z,28.08
2022-09-23T07:51:07.393Z,28.45
2022-09-23T07:53:34.705Z,28.00
2022-09-23T07:56:04.578Z,27.57
2022-09-23T07:58:32.520Z,28.12
2022-09-23T08:01:08.154Z,27.34
2022-09-23T08:03:36.498Z,26.60
2022-09-23T08:06:10.917Z,27.89
2022-09-23T08:08:40.758Z,28.53
2022-09-23T08:11:10.063Z,29.00
2022-09-23T08:13:37.698Z,27.39
2022-09-23T08:16:05.339Z,28.15
2022-09-23T08:18:32.985Z,28.20
2022-09-23T08:21:00.187Z,28.14
2022-09-23T08:23:27.867Z,28.44
2022-09-23T08:26:00.151Z,28.67
2022-09-23T08:28:27.562Z,28.34
2022-09-23T08:30:55.123Z,28.65
2022-09-23T08:33:23.817Z,28.35
2022-09-23T08:35:51.515Z,28.98
2022-09-23T08:38:19.411Z,28.64
2022-09-23T08:40:49.008Z,28.69
2022-09-23T08:43:32.922Z,28.95
2022-09-23T08:46:04.794Z,28.55
2022-09-23T08:48:37.500Z,28.34
2022-09-23T08:51:06.473Z,28.71
2022-09-23T08:53:37.039Z,28.62
2022-09-23T08:56:07.325Z,28.52
2022-09-23T08:58:35.236Z,28.98
2022-09-23T09:01:21.330Z,28.51
2022-09-23T09:03:53.898Z,28.46
2022-09-23T09:06:31.112Z,27.85
2022-09-23T09:09:01.031Z,28.45
2022-09-23T09:11:37.170Z,28.49
2022-09-23T09:14:18.988Z,27.92
2022-09-23T09:17:06.218Z,28.77
2022-09-23T09:19:42.738Z,27.99
2022-09-23T09:22:14.366Z,28.40
2022-09-23T09:24:45.697Z,28.36
2022-09-23T09:27:13.368Z,28.16
2022-09-23T09:29:49.771Z,27.94
2022-09-23T09:32:33.789Z,28.33
2022-09-23T09:35:05.704Z,28.11
2022-09-23T09:37:33.716Z,28.60
2022-09-23T09:40:01.072Z,28.55
2022-09-23T09:42:37.481Z,28.45
2022-09-23T09:45:11.280Z,27.28
2022-09-23T09:47:51.664Z,27.84
2022-09-23T09:50:39.039Z,28.19
2022-09-23T09:53:16.585Z,28.30
2022-09-23T09:55:44.467Z,27.86
2022-09-23T09:58:16.445Z,28.24
2022-09-23T10:00:45.748Z,28.05
2022-09-23T10:03:13.381Z,28.02
2022-09-23T10:05:46.811Z,27.98
2022-09-23T10:08:32.314Z,28.31
2022-09-23T10:10:59.564Z,28.20
2022-09-23T10:13:27.344Z,28.45
2022-09-23T10:15:55.124Z,27.83
2022-09-23T10:18:22.271Z,28.46
2022-09-23T10:20:49.518Z,28.31
2022-09-23T10:23:21.863Z,28.28
2022-09-23T10:26:00.225Z,28.16
2022-09-23T10:28:32.242Z,28.17
2022-09-23T10:31:07.657Z,28.47
2022-09-23T10:33:39.779Z,28.52
2022-09-23T10:36:10.671Z,28.21
2022-09-23T10:38:37.944Z,28.12
2022-09-23T10:41:24.255Z,28.02
2022-09-23T10:44:06.943Z,28.12
2022-09-23T10:46:39.120Z,28.19
2022-09-23T10:49:10.181Z,28.38
2022-09-23T10:51:45.011Z,27.95
2022-09-23T10:54:25.748Z,28.08
2022-09-23T10:57:02.295Z,28.25
2022-09-23T10:59:43.554Z,27.77
2022-09-23T11:02:23.229Z,27.70
2022-09-23T11:04:54.762Z,28.09
2022-09-23T11:07:22.011Z,26.65
2022-09-23T11:09:49.236Z,28.13
2022-09-23T11:12:29.552Z,28.22
2022-09-23T11:15:00.174Z,27.85
2022-09-23T11:17:36.548Z,28.12
2022-09-23T11:20:03.767Z,28.06
2022-09-23T11:22:38.002Z,27.29
2022-09-23T11:25:08.471Z,28.19
2022-09-23T11:27:38.672Z,27.76
2022-09-23T11:30:12.708Z,27.83
2022-09-23T11:32:51.904Z,28.06
2022-09-23T11:35:22.473Z,28.15
2022-09-23T11:37:55.441Z,27.55
2022-09-23T11:40:33.711Z,27.72
2022-09-23T11:43:24.499Z,27.65
2022-09-23T11:45:58.022Z,26.81
2022-09-23T11:48:30.118Z,28.34
2022-09-23T11:51:00.628Z,28.34
2022-09-23T11:53:36.616Z,28.33
2022-09-23T11:56:07.681Z,28.23
2022-09-23T11:58:44.392Z,28.06
2022-09-23T12:01:38.554Z,28.13
2022-09-23T12:04:19.794Z,28.36
2022-09-23T12:06:52.740Z,28.04
2022-09-23T12:09:53.990Z,27.57
2022-09-23T12:12:26.969Z,27.40
2022-09-23T12:15:00.345Z,27.46
2022-09-23T12:17:43.283Z,28.17
2022-09-23T12:20:19.552Z,28.08
2022-09-23T12:22:47.537Z,28.39
2022-09-23T12:25:20.804Z,28.29
2022-09-23T12:27:50.483Z,27.83
2022-09-23T12:30:22.211Z,27.91
2022-09-23T12:32:49.793Z,28.56
2022-09-23T12:35:32.263Z,28.12
2022-09-23T12:38:01.249Z,28.63
2022-09-23T12:40:43.963Z,28.24
2022-09-23T12:43:29.856Z,28.30
2022-09-23T12:46:16.674Z,28.27
2022-09-23T12:48:45.911Z,28.41
2022-09-23T12:51:16.332Z,28.44
2022-09-23T12:53:57.667Z,28.38
2022-09-23T12:56:47.701Z,28.03
2022-09-23T12:59:24.006Z,28.68
2022-09-23T13:01:51.504Z,28.52
2022-09-23T13:04:52.535Z,28.25
2022-09-23T13:07:27.227Z,28.25
2022-09-23T13:10:03.227Z,28.21
2022-09-23T13:12:34.754Z,28.40
2022-09-23T13:15:05.755Z,28.31
2022-09-23T13:17:36.028Z,28.48
2022-09-23T13:20:06.413Z,28.22
2022-09-23T13:22:48.869Z,28.38
2022-09-23T13:29:00.186Z,28.45
2022-09-23T13:31:27.484Z,28.33
2022-09-23T13:33:59.763Z,28.67
2022-09-23T13:36:27.105Z,28.46
2022-09-23T13:39:13.111Z,28.42
2022-09-23T13:41:41.701Z,28.40
2022-09-23T13:44:13.586Z,28.19
2022-09-23T13:46:45.934Z,28.47
2022-09-23T13:49:24.446Z,27.96
2022-09-23T13:51:54.268Z,27.96
2022-09-23T13:54:29.086Z,28.44
2022-09-23T13:56:56.803Z,27.94
2022-09-23T13:59:26.069Z,28.27
2022-09-23T14:02:04.356Z,28.39
2022-09-23T14:04:31.821Z,28.42
2022-09-23T14:06:59.260Z,28.27
2022-09-23T14:09:29.227Z,28.46
2022-09-23T14:12:00.645Z,28.12
2022-09-23T14:14:29.002Z,28.21
2022-09-23T14:16:57.096Z,28.31
2022-09-23T14:19:25.783Z,28.21
2022-09-23T14:21:54.287Z,28.09
2022-09-23T14:24:21.594Z,28.46
2022-09-23T14:26:52.020Z,28.52
2022-09-23T14:29:39.566Z,28.57
2022-09-23T14:32:11.131Z,28.55
2022-09-23T14:34:50.029Z,28.18
2022-09-23T14:37:48.294Z,28.35
2022-09-23T14:40:19.792Z,28.70
2022-09-23T14:42:52.180Z,28.79
2022-09-23T14:45:21.771Z,28.33
2022-09-23T14:47:51.533Z,28.53
2022-09-23T14:50:39.488Z,28.69
2022-09-23T14:53:27.022Z,28.38
2022-09-23T14:55:58.950Z,28.62
2022-09-23T14:58:31.238Z,28.89
2022-09-23T15:01:00.407Z,28.41
2022-09-23T15:03:28.501Z,28.74
2022-09-23T15:06:07.732Z,28.88
2022-09-23T15:08:36.039Z,28.95
2022-09-23T15:11:07.837Z,28.52
2022-09-23T15:13:40.680Z,28.85
2022-09-23T15:16:08.192Z,28.84
2022-09-23T15:18:41.602Z,28.86
2022-09-23T15:21:10.015Z,29.05
2022-09-23T15:23:41.557Z,28.80
2022-09-23T15:26:19.185Z,28.66
2022-09-23T15:28:47.065Z,28.94
2022-09-23T15:31:16.036Z,29.00
2022-09-23T15:33:47.613Z,28.74
2022-09-23T15:36:17.513Z,29.09
2022-09-23T15:38:45.163Z,28.91
2022-09-23T15:41:14.387Z,28.67
2022-09-23T15:43:41.991Z,28.88
2022-09-23T15:46:14.185Z,29.02
2022-09-23T15:48:43.754Z,29.47
2022-09-23T15:51:14.280Z,29.67
2022-09-23T15:53:41.469Z,29.16
2022-09-23T15:56:08.785Z,29.41
2022-09-23T15:58:36.665Z,29.55
2022-09-23T16:01:04.175Z,29.54
2022-09-23T16:03:31.583Z,29.54
2022-09-23T16:06:01.250Z,29.20
2022-09-23T16:08:29.229Z,29.50
2022-09-23T16:10:56.605Z,29.42
2022-09-23T16:13:23.944Z,29.57
2022-09-23T16:15:51.150Z,29.79
2022-09-23T16:18:18.395Z,29.96
2022-09-23T16:20:46.469Z,29.58
2022-09-23T16:23:34.311Z,30.03
2022-09-23T16:26:03.224Z,29.50
2022-09-23T16:28:30.453Z,29.41
2022-09-23T16:30:57.844Z,29.55
2022-09-23T16:33:25.049Z,29.54
2022-09-23T16:35:52.574Z,29.55
2022-09-23T16:38:21.125Z,29.65
2022-09-23T16:40:48.565Z,29.45
2022-09-23T16:43:16.009Z,29.55
2022-09-23T16:45:43.447Z,29.56
2022-09-23T16:48:11.509Z,29.26
2022-09-23T16:50:39.549Z,29.54
2022-09-23T16:53:06.693Z,29.53
2022-09-23T16:55:33.896Z,29.89
2022-09-23T16:58:01.095Z,29.64
2022-09-23T17:00:46.816Z,30.01
2022-09-23T17:03:32.422Z,29.69
2022-09-23T17:06:03.415Z,29.34
2022-09-23T17:08:33.378Z,29.13
2022-09-23T17:11:00.959Z,29.47
2022-09-23T17:13:28.459Z,29.58
2022-09-23T17:15:55.798Z,29.51
2022-09-23T17:18:23.353Z,29.46
2022-09-23T17:20:57.994Z,29.03
2022-09-23T17:23:26.519Z,29.53
2022-09-23T17:25:54.072Z,29.48
2022-09-23T17:28:21.408Z,29.42
2022-09-23T17:30:50.641Z,29.46
2022-09-23T17:33:19.960Z,29.40
2022-09-23T17:35:47.147Z,29.49
2022-09-23T17:38:14.394Z,29.39
2022-09-23T17:40:42.126Z,29.23
2022-09-23T17:43:09.440Z,29.02
2022-09-23T17:45:37.272Z,29.33
2022-09-23T17:48:04.521Z,29.65
2022-09-23T17:50:31.870Z,29.53
2022-09-23T17:53:00.465Z,29.39
2022-09-23T17:55:27.762Z,29.19
2022-09-23T17:57:54.943Z,29.25
2022-09-23T18:00:22.243Z,29.47
2022-09-23T18:02:52.512Z,29.52
2022-09-23T18:05:19.803Z,29.46
2022-09-23T18:07:47.067Z,29.40
2022-09-23T18:10:14.383Z,29.91
2022-09-23T18:12:41.549Z,29.57
2022-09-23T18:15:09.027Z,30.00
2022-09-23T18:17:36.215Z,29.50
2022-09-23T18:20:03.665Z,29.46
2022-09-23T18:22:30.881Z,29.15
2022-09-23T18:24:58.941Z,29.62
2022-09-23T18:27:26.625Z,29.74
2022-09-23T18:29:54.005Z,29.36
2022-09-23T18:32:21.181Z,29.61
2022-09-23T18:34:48.503Z,29.90
2022-09-23T18:37:16.396Z,29.51
2022-09-23T18:39:43.759Z,29.34
2022-09-23T18:42:12.423Z,29.26
2022-09-23T18:44:40.773Z,29.56
2022-09-23T18:47:08.037Z,29.81
2022-09-23T18:49:53.704Z,29.58
2022-09-23T18:52:21.132Z,29.02
2022-09-23T18:54:50.790Z,29.49
2022-09-23T18:57:21.610Z,29.29
2022-09-23T18:59:48.767Z,29.36
2022-09-23T19:02:17.054Z,29.25
2022-09-23T19:04:44.286Z,29.58
2022-09-23T19:07:11.947Z,29.34
2022-09-23T19:09:39.125Z,29.66
2022-09-23T19:12:06.490Z,29.37
2022-09-23T19:14:33.867Z,29.38
2022-09-23T19:17:01.269Z,29.09
2022-09-23T19:19:30.174Z,29.32
2022-09-23T19:21:57.463Z,29.51
2022-09-23T19:24:24.647Z,29.28
2022-09-23T19:26:54.049Z,29.42
2022-09-23T19:29:21.929Z,29.66
2022-09-23T19:31:49.384Z,29.73
2022-09-23T19:34:18.088Z,29.26
2022-09-23T19:36:46.653Z,29.44
2022-09-23T19:39:17.400Z,29.26
2022-09-23T19:41:45.056Z,29.71
2022-09-23T19:44:12.469Z,29.32
2022-09-23T19:46:42.885Z,29.79
2022-09-23T19:49:11.424Z,29.65
2022-09-23T19:51:39.158Z,29.60
2022-09-23T19:54:07.307Z,29.47
2022-09-23T19:56:34.753Z,29.11
2022-09-23T19:59:03.143Z,29.73
2022-09-23T20:01:30.574Z,29.63
2022-09-23T20:03:58.018Z,29.29
2022-09-23T20:06:25.308Z,29.56
2022-09-23T20:08:53.065Z,29.60
2022-09-23T20:11:24.792Z,29.27
2022-09-23T20:14:01.009Z,29.45
2022-09-23T20:16:32.169Z,29.31
2022-09-23T20:19:00.442Z,29.45
2022-09-23T20:21:29.215Z,29.27
2022-09-23T20:23:57.269Z,29.25
2022-09-23T20:26:43.163Z,29.54
2022-09-23T20:29:11.128Z,29.31
2022-09-23T20:31:40.462Z,29.31
2022-09-23T20:34:08.507Z,29.62
2022-09-23T20:36:36.173Z,29.33
2022-09-23T20:39:05.979Z,29.46
2022-09-23T20:41:37.353Z,29.37
2022-09-23T20:44:11.636Z,29.45
2022-09-23T20:46:39.082Z,29.58
2022-09-23T20:49:07.954Z,29.73
2022-09-23T20:51:38.343Z,29.65
2022-09-23T20:54:06.927Z,29.55
2022-09-23T20:56:34.138Z,29.72
2022-09-23T20:59:02.086Z,29.55
2022-09-23T21:01:29.336Z,29.56
2022-09-23T21:03:56.695Z,29.12
2022-09-23T21:06:26.584Z,28.94
2022-09-23T21:08:54.653Z,29.12
2022-09-23T21:11:22.049Z,29.55
2022-09-23T21:13:50.471Z,29.19
2022-09-23T21:16:19.139Z,29.18
2022-09-23T21:18:46.867Z,29.11
2022-09-23T21:21:14.554Z,29.32
2022-09-23T21:23:43.411Z,29.38
2022-09-23T21:26:12.151Z,29.34
2022-09-23T21:28:40.484Z,29.73
2022-09-23T21:31:28.013Z,29.56
2022-09-23T21:33:56.487Z,29.51
2022-09-23T21:36:24.822Z,29.26
2022-09-23T21:38:52.566Z,29.32
2022-09-23T21:41:20.265Z,29.55
2022-09-23T21:43:48.763Z,29.66
2022-09-23T21:46:20.225Z,29.51
2022-09-23T21:48:49.945Z,29.68
2022-09-23T21:51:23.109Z,29.62
2022-09-23T21:53:50.574Z,29.32
2022-09-23T21:56:24.894Z,29.53
2022-09-23T21:58:53.793Z,29.42
2022-09-23T22:01:21.021Z,29.56
2022-09-23T22:03:58.350Z,29.65
2022-09-23T22:06:27.463Z,29.45
2022-09-23T22:09:01.953Z,29.93
2022-09-23T22:11:48.964Z,29.72
2022-09-23T22:14:17.360Z,29.64
2022-09-23T22:16:44.549Z,29.50
2022-09-23T22:19:13.658Z,30.00
2022-09-23T22:21:42.088Z,29.70
2022-09-23T22:24:10.166Z,29.53
2022-09-23T22:26:39.161Z,29.19
2022-09-23T22:29:26.309Z,29.33
2022-09-23T22:32:12.066Z,29.31
2022-09-23T22:34:51.415Z,29.70
2022-09-23T22:37:20.868Z,29.89
2022-09-23T22:39:48.265Z,29.66
2022-09-23T22:42:16.173Z,29.36
2022-09-23T22:44:43.390Z,29.41
2022-09-23T22:47:10.808Z,29.66
2022-09-23T22:49:38.017Z,29.26
2022-09-23T22:52:08.067Z,29.20
2022-09-23T22:54:36.279Z,29.85
2022-09-23T22:57:04.039Z,29.99
2022-09-23T22:59:31.263Z,29.54
2022-09-23T23:02:03.125Z,29.77
2022-09-23T23:04:31.053Z,29.53
2022-09-23T23:07:02.303Z,29.31
2022-09-23T23:09:29.527Z,29.60
2022-09-23T23:11:56.704Z,29.62
2022-09-23T23:14:24.470Z,29.19
2022-09-23T23:16:51.687Z,29.72
2022-09-23T23:19:19.266Z,29.90
2022-09-23T23:21:47.262Z,29.78
2022-09-23T23:24:16.422Z,29.63
2022-09-23T23:26:44.015Z,29.52
2022-09-23T23:29:12.049Z,29.77
2022-09-23T23:31:39.546Z,29.67
2022-09-23T23:34:08.427Z,29.95
2022-09-23T23:36:35.724Z,29.59
2022-09-23T23:39:02.969Z,29.64
2022-09-23T23:41:31.413Z,29.47
2022-09-23T23:43:59.211Z,29.65
2022-09-23T23:46:28.549Z,29.45
2022-09-23T23:48:56.919Z,29.70
2022-09-23T23:51:26.563Z,29.68
2022-09-23T23:53:54.647Z,29.76
2022-09-23T23:56:25.299Z,29.49
2022-09-23T23:58:56.412Z,29.44
